Etusivu
METAR-TAF:

METAR-TAF

Lentoasemat :

Raymond, Mississippi, Yhdysvallat

Leveyspiiri: 32-18-16N, Pituuspiiri: 090-24-38W, korkeus merenpinnasta: 75 m

Tämänhetkinen sää

Tämä raportti tehtiin 34 minuuttia sitten, kello 11.15 UTC
Tuuli 5 kn etelästä/kaakosta
Lämpötila 13°C
Kosteus 94%
Ilmanpaine 1013 hPa
Näkyvyys: 16.1 km
Pilvistä 4400 ft:n korkeudessa

METAR: KJVW 241115Z AUTO 16005KT 10SM OVC044 13/12 A2992 RMK AO2

Aika: 05:49 (11:49 UTC)


TAF: puuttuu

Säähavainnot ja -ennusteet yli 4000 lentoasemalta (METAR- ja TAF-raportit).

Käytössä olevat sääasemat on merkitty karttaan keltaisilla ja punaisilla pisteillä.

Aseta hiiri pisteen päälle nähdäksesi sääaseman nimen.

Klikkaa sitten nähdäksesi säähavainnot ja -ennusteet.

Kartan vaihtaminen: klikkaa mustalla rastilla varustettuja vihreitä pisteitä, niin voit zoomata sisään; viivalla varustettua vihreää pistettä, niin voit zoomata ulos tai vihreitä nuolia, niin pääset viereisille kartoille.


METAR-TAF: